createdAt,value
2023-05-19T00:00:50.932Z,78.10
2023-05-19T00:03:21.886Z,78.64
2023-05-19T00:05:50.541Z,78.50
2023-05-19T00:08:20.394Z,78.99
2023-05-19T00:10:48.981Z,79.08
2023-05-19T00:13:17.630Z,80.33
2023-05-19T00:15:46.032Z,80.57
2023-05-19T00:18:14.451Z,81.12
2023-05-19T00:20:44.085Z,80.91
2023-05-19T00:23:12.561Z,80.98
2023-05-19T00:25:40.610Z,82.60
2023-05-19T00:28:08.552Z,83.07
2023-05-19T00:30:36.471Z,82.50
2023-05-19T00:33:04.511Z,83.25
2023-05-19T00:35:32.893Z,83.96
2023-05-19T00:38:02.227Z,84.59
2023-05-19T00:40:33.283Z,84.35
2023-05-19T00:43:01.834Z,85.01
2023-05-19T00:45:30.243Z,85.29
2023-05-19T00:47:58.272Z,85.37
2023-05-19T00:50:27.401Z,85.79
2023-05-19T00:52:55.744Z,86.15
2023-05-19T00:55:28.233Z,86.00
2023-05-19T00:57:57.320Z,86.11
2023-05-19T01:00:25.834Z,87.34
2023-05-19T01:02:54.218Z,86.80
2023-05-19T01:05:22.381Z,87.99
2023-05-19T01:07:53.431Z,88.07
2023-05-19T01:10:21.658Z,88.68
2023-05-19T01:12:51.184Z,88.88
2023-05-19T01:15:20.957Z,88.72
2023-05-19T01:17:55.635Z,88.57
2023-05-19T01:20:29.312Z,88.34
2023-05-19T01:23:19.019Z,89.21
2023-05-19T01:26:23.652Z,89.11
2023-05-19T01:29:08.999Z,90.07
2023-05-19T01:31:40.114Z,90.10
2023-05-19T01:34:09.250Z,89.68
2023-05-19T01:36:38.192Z,89.17
2023-05-19T01:39:07.988Z,89.99
2023-05-19T01:41:36.611Z,90.60
2023-05-19T01:44:04.754Z,90.78
2023-05-19T01:46:32.860Z,90.82
2023-05-19T01:49:03.040Z,90.79
2023-05-19T01:51:31.463Z,90.74
2023-05-19T01:54:00.376Z,90.80
2023-05-19T01:56:39.406Z,90.29
2023-05-19T01:59:24.253Z,89.72
2023-05-19T02:01:55.005Z,90.09
2023-05-19T02:04:39.197Z,90.02
2023-05-19T02:07:16.511Z,90.06
2023-05-19T02:09:54.254Z,89.96
2023-05-19T02:12:29.430Z,89.89
2023-05-19T02:15:07.584Z,89.46
2023-05-19T02:17:41.417Z,89.27
2023-05-19T02:20:12.969Z,90.04
2023-05-19T02:22:41.161Z,89.83
2023-05-19T02:25:10.059Z,89.86
2023-05-19T02:27:39.661Z,90.35
2023-05-19T02:30:09.368Z,90.14
2023-05-19T02:32:38.280Z,90.86
2023-05-19T02:35:08.133Z,91.45
2023-05-19T02:37:37.443Z,92.55
2023-05-19T02:40:06.637Z,92.36
2023-05-19T02:42:34.779Z,93.08
2023-05-19T02:45:02.839Z,93.88
2023-05-19T02:47:30.913Z,93.21
2023-05-19T02:49:59.159Z,92.82
2023-05-19T02:52:27.048Z,93.59
2023-05-19T02:54:56.406Z,94.05
2023-05-19T02:57:24.321Z,94.22
2023-05-19T02:59:52.375Z,93.83
2023-05-19T03:02:20.465Z,93.37
2023-05-19T03:04:48.721Z,93.55
2023-05-19T03:07:16.767Z,93.24
2023-05-19T03:09:44.724Z,94.12
2023-05-19T03:12:14.141Z,93.68
2023-05-19T03:14:42.357Z,94.90
2023-05-19T03:17:10.715Z,95.41
2023-05-19T03:19:39.202Z,96.47
2023-05-19T03:22:07.154Z,96.43
2023-05-19T03:24:36.292Z,95.81
2023-05-19T03:27:05.896Z,96.24
2023-05-19T03:29:36.899Z,95.42
2023-05-19T03:32:05.388Z,95.42
2023-05-19T03:34:33.911Z,95.42
2023-05-19T03:37:01.950Z,95.51
2023-05-19T03:39:30.147Z,95.68
2023-05-19T03:41:58.621Z,95.67
2023-05-19T03:44:27.109Z,95.77
2023-05-19T03:46:56.861Z,96.84
2023-05-19T03:49:43.654Z,97.01
2023-05-19T03:52:31.869Z,97.71
2023-05-19T03:55:09.210Z,98.14
2023-05-19T03:57:37.813Z,97.91
2023-05-19T04:00:07.138Z,97.66
2023-05-19T04:02:42.118Z,97.74
2023-05-19T04:05:11.029Z,97.33
2023-05-19T04:07:39.156Z,97.89
2023-05-19T04:10:08.508Z,97.47
2023-05-19T04:12:36.480Z,98.31
2023-05-19T04:15:05.847Z,98.04
2023-05-19T04:17:34.079Z,98.29
2023-05-19T04:20:04.806Z,96.23
2023-05-19T04:22:32.833Z,96.51
2023-05-19T04:25:00.862Z,95.67
2023-05-19T04:27:31.936Z,95.54
2023-05-19T04:30:00.464Z,94.37
2023-05-19T04:32:29.351Z,94.68
2023-05-19T04:34:59.422Z,93.43
2023-05-19T04:37:30.663Z,93.80
2023-05-19T04:39:59.679Z,92.44
2023-05-19T04:42:33.097Z,91.68
2023-05-19T04:45:03.229Z,90.92
2023-05-19T04:47:36.902Z,89.91
2023-05-19T04:50:06.133Z,88.75
2023-05-19T04:52:36.208Z,88.25
2023-05-19T04:55:06.322Z,87.79
2023-05-19T04:57:34.626Z,86.27
2023-05-19T05:00:04.276Z,85.87
2023-05-19T05:02:39.473Z,85.01
2023-05-19T05:07:38.957Z,82.47
2023-05-19T05:10:09.421Z,82.23
2023-05-19T05:12:38.270Z,80.74
2023-05-19T05:15:08.073Z,80.18
2023-05-19T05:17:37.755Z,77.74
2023-05-19T05:20:08.018Z,76.64
2023-05-19T05:22:39.653Z,75.16
2023-05-19T05:25:10.498Z,74.98
2023-05-19T05:27:39.421Z,73.64
2023-05-19T05:30:10.106Z,71.80
2023-05-19T05:32:39.502Z,69.90
2023-05-19T05:35:13.603Z,69.41
2023-05-19T05:37:43.008Z,68.27
2023-05-19T05:40:11.865Z,66.67
2023-05-19T05:42:40.483Z,65.89
2023-05-19T05:45:10.575Z,64.95
2023-05-19T05:47:39.858Z,63.29
2023-05-19T05:50:11.151Z,61.00
2023-05-19T05:52:41.623Z,59.59
2023-05-19T05:55:13.257Z,58.27
2023-05-19T05:57:41.910Z,57.47
2023-05-19T06:00:15.632Z,57.14
2023-05-19T06:02:44.800Z,56.35
2023-05-19T06:05:14.042Z,54.83
2023-05-19T06:07:43.790Z,53.63
2023-05-19T06:10:15.008Z,53.34
2023-05-19T06:12:43.336Z,52.21
2023-05-19T06:15:12.524Z,51.53
2023-05-19T06:18:00.198Z,48.11
2023-05-19T06:20:28.748Z,50.06
2023-05-19T06:22:57.692Z,48.16
2023-05-19T06:25:31.275Z,47.51
2023-05-19T06:27:59.453Z,49.36
2023-05-19T06:30:28.652Z,48.17
2023-05-19T06:33:07.980Z,46.04
2023-05-19T06:35:35.994Z,46.61
2023-05-19T06:38:04.224Z,45.75
2023-05-19T06:40:33.758Z,45.14
2023-05-19T06:43:01.978Z,44.02
2023-05-19T06:45:49.915Z,42.96
2023-05-19T06:48:17.934Z,43.32
2023-05-19T06:50:46.025Z,42.98
2023-05-19T06:53:14.390Z,43.55
2023-05-19T06:55:57.423Z,44.16
2023-05-19T06:58:28.571Z,42.98
2023-05-19T07:00:58.006Z,43.42
2023-05-19T07:03:31.077Z,42.39
2023-05-19T07:06:00.028Z,40.53
2023-05-19T07:08:29.006Z,41.79
2023-05-19T07:10:59.136Z,42.67
2023-05-19T07:13:27.736Z,41.15
2023-05-19T07:15:57.044Z,41.41
2023-05-19T07:18:26.547Z,40.16
2023-05-19T07:20:54.522Z,38.42
2023-05-19T07:23:22.664Z,39.19
2023-05-19T07:25:51.469Z,39.86
2023-05-19T07:28:20.742Z,38.44
2023-05-19T07:30:49.971Z,39.31
2023-05-19T07:33:17.889Z,38.45
2023-05-19T07:35:46.323Z,39.38
2023-05-19T07:38:14.233Z,37.38
2023-05-19T07:40:42.187Z,36.49
2023-05-19T07:43:11.330Z,34.76
2023-05-19T07:45:41.004Z,35.23
2023-05-19T07:48:08.952Z,33.92
2023-05-19T07:50:37.071Z,33.93
2023-05-19T07:53:05.103Z,34.24
2023-05-19T07:55:33.100Z,32.46
2023-05-19T07:58:01.029Z,32.75
2023-05-19T08:00:29.079Z,31.09
2023-05-19T08:02:58.734Z,33.49
2023-05-19T08:05:26.778Z,33.50
2023-05-19T08:07:54.682Z,31.89
2023-05-19T08:10:22.612Z,33.25
2023-05-19T08:12:50.541Z,31.49
2023-05-19T08:15:18.980Z,31.35
2023-05-19T08:17:46.928Z,30.45
2023-05-19T08:20:16.189Z,29.69
2023-05-19T08:22:44.131Z,29.70
2023-05-19T08:25:12.127Z,30.05
2023-05-19T08:27:39.982Z,28.65
2023-05-19T08:30:09.107Z,28.58
2023-05-19T08:32:37.013Z,26.99
2023-05-19T08:35:05.212Z,27.68
2023-05-19T08:37:37.075Z,29.75
2023-05-19T08:40:06.266Z,29.53
2023-05-19T08:42:34.341Z,31.01
2023-05-19T08:45:03.191Z,32.11
2023-05-19T08:47:31.328Z,32.48
2023-05-19T08:50:04.962Z,32.40
2023-05-19T08:52:50.250Z,32.22
2023-05-19T08:55:28.625Z,29.31
2023-05-19T08:57:57.839Z,29.93
2023-05-19T09:00:26.760Z,31.71
2023-05-19T09:03:00.189Z,30.24
2023-05-19T09:05:34.753Z,30.64
2023-05-19T09:08:05.589Z,32.00
2023-05-19T09:10:33.534Z,32.11
2023-05-19T09:13:01.503Z,30.44
2023-05-19T09:15:29.640Z,30.17
2023-05-19T09:18:10.696Z,31.87
2023-05-19T09:20:40.668Z,31.86
2023-05-19T09:23:14.886Z,29.38
2023-05-19T09:25:49.249Z,28.64
2023-05-19T09:28:25.076Z,27.09
2023-05-19T09:31:00.810Z,30.35
2023-05-19T09:33:29.378Z,29.78
2023-05-19T09:35:57.414Z,31.14
2023-05-19T09:38:27.314Z,32.19
2023-05-19T09:40:57.532Z,32.39
2023-05-19T09:43:25.469Z,33.02
2023-05-19T09:45:56.765Z,34.02
2023-05-19T09:48:27.642Z,34.61
2023-05-19T09:50:57.218Z,36.01
2023-05-19T09:53:26.613Z,35.28
2023-05-19T09:55:57.834Z,35.50
2023-05-19T09:58:26.272Z,34.70
2023-05-19T10:00:55.468Z,35.42
2023-05-19T10:03:24.916Z,35.30
2023-05-19T10:05:54.592Z,35.76
2023-05-19T10:08:24.456Z,37.20
2023-05-19T10:10:53.817Z,35.50
2023-05-19T10:13:23.069Z,35.29
2023-05-19T10:18:25.209Z,34.77
2023-05-19T10:20:53.770Z,34.67
2023-05-19T10:23:22.336Z,35.92
2023-05-19T10:25:52.085Z,34.19
2023-05-19T10:28:25.390Z,33.10
2023-05-19T10:30:57.750Z,32.78
2023-05-19T10:33:35.445Z,31.26
2023-05-19T10:36:29.133Z,32.55
2023-05-19T10:39:03.450Z,31.69
2023-05-19T10:41:43.979Z,31.08
2023-05-19T10:44:24.420Z,29.41
2023-05-19T10:46:54.171Z,29.26
2023-05-19T10:49:24.204Z,28.18
2023-05-19T10:51:56.032Z,26.84
2023-05-19T10:54:43.298Z,25.23
2023-05-19T10:57:16.290Z,25.70
2023-05-19T10:59:46.167Z,28.09
2023-05-19T11:02:40.770Z,27.43
2023-05-19T11:05:10.562Z,24.76
2023-05-19T11:07:38.655Z,25.47
2023-05-19T11:10:08.107Z,26.20
2023-05-19T11:12:43.910Z,26.66
2023-05-19T11:15:15.602Z,25.45
2023-05-19T11:17:48.317Z,24.44
2023-05-19T11:20:23.826Z,23.62
2023-05-19T11:23:07.314Z,24.71
2023-05-19T11:25:46.795Z,23.88
2023-05-19T11:28:17.554Z,24.93
2023-05-19T11:30:50.522Z,23.25
2023-05-19T11:33:19.932Z,24.08
2023-05-19T11:35:49.437Z,25.54
2023-05-19T11:38:19.726Z,25.45
2023-05-19T11:40:53.695Z,24.42
2023-05-19T11:43:24.258Z,25.88
2023-05-19T11:45:54.900Z,24.18
2023-05-19T11:48:23.752Z,25.17
2023-05-19T11:50:52.500Z,22.31
2023-05-19T11:53:21.062Z,22.62
2023-05-19T11:55:49.965Z,21.94
2023-05-19T11:58:18.109Z,24.84
2023-05-19T12:00:47.571Z,21.83
2023-05-19T12:03:22.253Z,23.56
2023-05-19T12:05:50.933Z,24.48
2023-05-19T12:08:19.483Z,25.25
2023-05-19T12:10:50.446Z,25.15
2023-05-19T12:13:18.421Z,27.87
2023-05-19T12:15:46.383Z,27.79
2023-05-19T12:18:14.780Z,25.71
2023-05-19T12:20:44.536Z,25.22
2023-05-19T12:23:14.424Z,25.54
2023-05-19T12:25:42.714Z,26.88
2023-05-19T12:28:11.652Z,27.36
2023-05-19T12:30:39.661Z,24.01
2023-05-19T12:33:07.684Z,24.65
2023-05-19T12:35:38.790Z,24.64
2023-05-19T12:38:08.188Z,24.46
2023-05-19T12:40:37.417Z,25.74
2023-05-19T12:43:07.832Z,25.05
2023-05-19T12:45:37.042Z,25.14
2023-05-19T12:48:06.667Z,25.79
2023-05-19T12:50:35.280Z,26.09
2023-05-19T12:53:03.762Z,26.51
2023-05-19T12:55:39.641Z,27.81
2023-05-19T12:58:08.536Z,26.70
2023-05-19T13:00:41.710Z,25.25
2023-05-19T13:03:15.964Z,24.82
2023-05-19T13:05:46.556Z,23.78
2023-05-19T13:08:16.163Z,24.58
2023-05-19T13:10:47.187Z,22.54
2023-05-19T13:13:15.340Z,22.64
2023-05-19T13:15:44.478Z,24.80
2023-05-19T13:18:13.989Z,24.23
2023-05-19T13:20:43.218Z,24.24
2023-05-19T13:23:11.587Z,22.12
2023-05-19T13:25:39.498Z,22.88
2023-05-19T13:28:08.991Z,24.47
2023-05-19T13:30:39.666Z,24.15
2023-05-19T13:33:08.231Z,25.37
2023-05-19T13:35:38.284Z,24.50
2023-05-19T13:38:06.837Z,24.04
2023-05-19T13:40:35.612Z,23.08
2023-05-19T13:43:04.198Z,23.58
2023-05-19T13:45:33.476Z,24.12
2023-05-19T13:48:01.423Z,23.33
2023-05-19T13:50:29.516Z,26.39
2023-05-19T13:52:57.461Z,23.50
2023-05-19T13:55:27.260Z,23.11
2023-05-19T13:57:55.255Z,23.75
2023-05-19T14:00:23.923Z,22.30
2023-05-19T14:02:53.836Z,22.07
2023-05-19T14:05:21.909Z,23.38
2023-05-19T14:07:49.867Z,21.69
2023-05-19T14:10:17.976Z,22.51
2023-05-19T14:13:12.416Z,24.04
2023-05-19T14:15:37.841Z,24.52
2023-05-19T14:18:07.629Z,25.45
2023-05-19T14:20:37.335Z,25.62
2023-05-19T14:23:05.586Z,26.13
2023-05-19T14:25:33.497Z,26.29
2023-05-19T14:28:01.789Z,28.04
2023-05-19T14:30:30.036Z,27.04
2023-05-19T14:32:57.992Z,28.79
2023-05-19T14:35:27.927Z,26.75
2023-05-19T14:37:55.767Z,27.08
2023-05-19T14:40:23.625Z,27.18
2023-05-19T14:42:51.536Z,26.99
2023-05-19T14:45:19.627Z,27.56
2023-05-19T14:47:48.048Z,26.66
2023-05-19T14:50:16.074Z,27.18
2023-05-19T14:52:45.410Z,25.84
2023-05-19T14:55:13.356Z,27.14
2023-05-19T14:57:41.382Z,26.93
2023-05-19T15:00:10.330Z,26.25
2023-05-19T15:02:38.329Z,27.67
2023-05-19T15:05:06.792Z,28.50
2023-05-19T15:07:34.716Z,28.42
2023-05-19T15:10:04.212Z,30.92
2023-05-19T15:12:32.107Z,28.82
2023-05-19T15:15:00.088Z,27.92
2023-05-19T15:17:28.057Z,28.71
2023-05-19T15:19:55.923Z,27.38
2023-05-19T15:22:23.812Z,27.98
2023-05-19T15:24:51.805Z,27.44
2023-05-19T15:27:21.358Z,27.71
2023-05-19T15:29:50.360Z,27.42
2023-05-19T15:32:18.377Z,28.51
2023-05-19T15:34:46.250Z,28.07
2023-05-19T15:37:14.147Z,26.95
2023-05-19T15:39:42.070Z,27.17
2023-05-19T15:42:09.963Z,26.27
2023-05-19T15:44:39.600Z,26.89
2023-05-19T15:47:07.463Z,27.52
2023-05-19T15:49:35.387Z,25.99
2023-05-19T15:52:04.427Z,29.77
2023-05-19T15:54:32.390Z,26.79
2023-05-19T15:57:00.291Z,26.96
2023-05-19T15:59:28.413Z,26.42
2023-05-19T16:01:57.723Z,26.70
2023-05-19T16:04:25.670Z,26.92
2023-05-19T16:06:53.603Z,26.56
2023-05-19T16:09:21.617Z,27.24
2023-05-19T16:11:49.625Z,27.07
2023-05-19T16:14:17.480Z,27.80
2023-05-19T16:16:45.671Z,28.44
2023-05-19T16:19:15.198Z,28.63
2023-05-19T16:21:43.103Z,29.14
2023-05-19T16:24:11.049Z,29.90
2023-05-19T16:26:38.940Z,30.18
2023-05-19T16:29:06.814Z,29.92
2023-05-19T16:31:34.754Z,29.97
2023-05-19T16:34:02.630Z,29.36
2023-05-19T16:36:31.861Z,29.42
2023-05-19T16:38:59.739Z,30.06
2023-05-19T16:41:27.666Z,30.28
2023-05-19T16:43:55.502Z,30.92
2023-05-19T16:46:23.554Z,31.43
2023-05-19T16:48:51.500Z,31.99
2023-05-19T16:51:19.419Z,31.02
2023-05-19T16:53:48.728Z,31.28
2023-05-19T16:56:16.614Z,31.96
2023-05-19T16:58:44.486Z,31.56
2023-05-19T17:01:12.451Z,31.68
2023-05-19T17:03:40.529Z,31.99
2023-05-19T17:06:08.470Z,31.88
2023-05-19T17:08:36.397Z,31.83
2023-05-19T17:11:06.480Z,32.88
2023-05-19T17:13:36.292Z,33.23
2023-05-19T17:16:04.353Z,33.22
2023-05-19T17:18:32.308Z,33.47
2023-05-19T17:21:03.432Z,33.89
2023-05-19T17:23:31.634Z,33.69
2023-05-19T17:25:59.494Z,34.19
2023-05-19T17:28:28.803Z,34.11
2023-05-19T17:30:56.914Z,34.50
2023-05-19T17:33:24.980Z,34.81
2023-05-19T17:35:53.014Z,34.96
2023-05-19T17:38:20.889Z,34.56
2023-05-19T17:40:48.866Z,34.74
2023-05-19T17:43:16.743Z,34.76
2023-05-19T17:45:45.966Z,34.98
2023-05-19T17:48:13.952Z,34.70
2023-05-19T17:50:41.918Z,34.48
2023-05-19T17:53:10.700Z,34.58
2023-05-19T17:55:39.224Z,34.78
2023-05-19T17:58:08.001Z,33.83
2023-05-19T18:00:36.420Z,34.77
2023-05-19T18:03:06.581Z,34.52
2023-05-19T18:05:34.832Z,34.46
2023-05-19T18:08:07.020Z,35.60
2023-05-19T18:10:38.106Z,35.53
2023-05-19T18:13:06.595Z,35.40
2023-05-19T18:15:34.869Z,34.98
2023-05-19T18:18:05.447Z,35.39
2023-05-19T18:20:35.510Z,35.59
2023-05-19T18:23:03.587Z,35.77
2023-05-19T18:25:31.482Z,35.61
2023-05-19T18:27:59.382Z,36.98
2023-05-19T18:30:27.273Z,36.62
2023-05-19T18:32:55.340Z,36.32
2023-05-19T18:35:23.371Z,36.39
2023-05-19T18:37:55.858Z,36.61
2023-05-19T18:40:23.890Z,37.12
2023-05-19T18:42:52.088Z,36.66
2023-05-19T18:45:20.107Z,37.07
2023-05-19T18:47:48.100Z,37.24
2023-05-19T18:50:16.501Z,37.60
2023-05-19T18:52:44.433Z,37.30
2023-05-19T18:55:13.723Z,37.30
2023-05-19T18:57:41.862Z,37.90
2023-05-19T19:00:10.754Z,37.12
2023-05-19T19:02:38.976Z,37.94
2023-05-19T19:05:09.437Z,37.60
2023-05-19T19:07:41.095Z,37.88
2023-05-19T19:10:10.062Z,38.34
2023-05-19T19:12:39.368Z,38.34
2023-05-19T19:15:08.185Z,38.52
2023-05-19T19:17:36.114Z,38.38
2023-05-19T19:20:04.237Z,38.85
2023-05-19T19:22:32.382Z,39.07
2023-05-19T19:25:00.540Z,39.25
2023-05-19T19:27:31.605Z,39.91
2023-05-19T19:30:01.395Z,39.51
2023-05-19T19:32:31.442Z,40.41
2023-05-19T19:34:59.448Z,40.33
2023-05-19T19:37:27.360Z,39.96
2023-05-19T19:39:55.329Z,40.49
2023-05-19T19:42:23.400Z,40.79
2023-05-19T19:44:58.087Z,40.79
2023-05-19T19:47:27.912Z,41.08
2023-05-19T19:49:56.129Z,41.00
2023-05-19T19:52:26.354Z,41.18
2023-05-19T19:54:54.529Z,41.50
2023-05-19T19:57:22.631Z,42.06
2023-05-19T19:59:55.096Z,42.07
2023-05-19T20:02:23.495Z,42.62
2023-05-19T20:04:52.749Z,42.57
2023-05-19T20:07:23.125Z,42.89
2023-05-19T20:09:52.695Z,43.13
2023-05-19T20:12:20.755Z,43.46
2023-05-19T20:14:51.215Z,43.91
2023-05-19T20:17:19.217Z,44.08
2023-05-19T20:19:47.222Z,44.34
2023-05-19T20:22:16.512Z,44.57
2023-05-19T20:24:44.448Z,44.78
2023-05-19T20:27:15.774Z,45.20
2023-05-19T20:29:43.805Z,45.04
2023-05-19T20:32:11.748Z,45.45
2023-05-19T20:34:39.810Z,46.02
2023-05-19T20:37:07.690Z,46.28
2023-05-19T20:39:36.976Z,46.38
2023-05-19T20:42:05.036Z,46.51
2023-05-19T20:44:32.983Z,46.98
2023-05-19T20:47:01.054Z,47.00
2023-05-19T20:49:29.051Z,47.49
2023-05-19T20:51:57.965Z,47.62
2023-05-19T20:54:26.144Z,47.50
2023-05-19T20:56:55.750Z,47.91
2023-05-19T20:59:23.675Z,48.32
2023-05-19T21:01:51.679Z,48.19
2023-05-19T21:04:23.068Z,48.62
2023-05-19T21:06:51.196Z,48.78
2023-05-19T21:09:21.110Z,48.88
2023-05-19T21:11:49.193Z,48.81
2023-05-19T21:14:18.609Z,48.82
2023-05-19T21:16:49.290Z,49.11
2023-05-19T21:19:43.089Z,49.30
2023-05-19T21:22:11.544Z,49.70
2023-05-19T21:24:39.542Z,49.96
2023-05-19T21:27:11.124Z,50.04
2023-05-19T21:29:40.484Z,50.45
2023-05-19T21:32:09.116Z,50.32
2023-05-19T21:34:38.845Z,50.68
2023-05-19T21:37:07.251Z,51.03
2023-05-19T21:39:35.756Z,51.55
2023-05-19T21:42:05.225Z,51.26
2023-05-19T21:44:33.173Z,52.32
2023-05-19T21:47:02.519Z,52.06
2023-05-19T21:49:31.086Z,52.35
2023-05-19T21:51:59.124Z,52.13
2023-05-19T21:54:27.170Z,52.20
2023-05-19T21:56:55.062Z,52.17
2023-05-19T21:59:24.697Z,52.25
2023-05-19T22:01:53.254Z,52.18
2023-05-19T22:04:23.672Z,52.89
2023-05-19T22:06:51.679Z,52.65
2023-05-19T22:09:19.619Z,52.61
2023-05-19T22:11:47.595Z,53.03
2023-05-19T22:14:15.785Z,52.81
2023-05-19T22:16:43.796Z,53.01
2023-05-19T22:19:12.692Z,52.97
2023-05-19T22:21:42.281Z,53.36
2023-05-19T22:24:10.304Z,53.60
2023-05-19T22:26:42.492Z,53.52
2023-05-19T22:29:14.928Z,53.75
2023-05-19T22:31:42.923Z,53.72
2023-05-19T22:34:12.462Z,54.08
2023-05-19T22:36:41.358Z,54.31
2023-05-19T22:39:12.400Z,54.49
2023-05-19T22:41:42.018Z,54.70
2023-05-19T22:44:11.361Z,54.87
2023-05-19T22:46:39.358Z,54.99
2023-05-19T22:49:07.264Z,55.25
2023-05-19T22:51:35.174Z,55.15
2023-05-19T22:54:03.173Z,55.25
2023-05-19T22:56:32.503Z,55.44
2023-05-19T22:59:00.661Z,56.42
2023-05-19T23:01:28.748Z,56.18
2023-05-19T23:03:56.914Z,56.42
2023-05-19T23:06:25.074Z,56.91
2023-05-19T23:08:59.687Z,57.22
2023-05-19T23:11:27.624Z,57.10
2023-05-19T23:13:57.359Z,57.00
2023-05-19T23:16:25.957Z,57.43
2023-05-19T23:18:53.969Z,57.05
2023-05-19T23:21:21.897Z,57.03
2023-05-19T23:23:50.439Z,56.78
2023-05-19T23:26:18.370Z,57.36
2023-05-19T23:28:46.279Z,57.38
2023-05-19T23:31:15.555Z,57.96
2023-05-19T23:33:43.532Z,57.76
2023-05-19T23:36:12.197Z,57.39
2023-05-19T23:38:40.367Z,57.82
2023-05-19T23:41:08.362Z,57.83
2023-05-19T23:43:37.719Z,58.42
2023-05-19T23:46:06.033Z,58.59
2023-05-19T23:48:36.547Z,58.75
2023-05-19T23:51:04.806Z,59.20
2023-05-19T23:53:32.829Z,58.88
2023-05-19T23:56:00.842Z,59.33
2023-05-19T23:58:28.909Z,59.42
